San Antonio, Texas
Current Conditions -  °F | °C
As of 6:08 AM on Monday 20 Oct 2014 (Local Time) from KSKF Reporting Station
Broken Clouds Broken Clouds  
Wind Chill: 66°   Ceiling: 1300
Heat Index: 66°   Visibility: 10mi
Dew Point: 64°   Wind: 5mph
Humidity: 94%   Direction: 40°NE
Pressure: 30"   Gusts: NA
Location:  29.42°N, 98.49°W
Report Text: KSKF 201108Z AUTO 04004KT 10SM BKN013 19/18 A3000 RMK AO2 BKN V SCT $
Loading
Personal Weather Stations






























Interactive Weather Map New forecast layout! Learn more

10-Day Weather Forecast

Advertisements
Track Severe Weather on mobile